Time;durP1;ratioP1;P1;durP2;ratioP2;P2;SDS_P1;SDS_P2;PMS_P1;PMS_P2;Temp;Humidity;BMP_temperature;BMP_pressure;BME280_temperature;BME280_humidity;BME280_pressure;Samples;Min_cycle;Max_cycle;Signal;HPM_P1;HPM_P2
2022/03/27 00:02:05;;;;;;;25.73;14.67;;;;;;;3.10;100.00;97610.47;5029734;28;20534;-73
2022/03/27 00:04:32;;;;;;;19.77;14.70;;;;;;;3.05;100.00;97604.38;5029817;28;20488;-72
2022/03/27 00:06:59;;;;;;;23.27;13.70;;;;;;;3.03;100.00;97596.78;5029103;28;20458;-72
2022/03/27 00:09:26;;;;;;;17.50;13.10;;;;;;;2.83;100.00;97565.25;5010891;28;20531;-72
2022/03/27 00:11:53;;;;;;;20.67;15.43;;;;;;;2.72;100.00;97580.00;5025145;28;20459;-72
2022/03/27 00:14:20;;;;;;;19.60;15.37;;;;;;;2.70;100.00;97576.06;5032430;28;20483;-72
2022/03/27 00:16:46;;;;;;;26.77;14.47;;;;;;;2.83;100.00;97580.91;5031031;28;20459;-72
2022/03/27 00:19:13;;;;;;;18.83;12.87;;;;;;;2.97;100.00;97590.75;5030830;28;20436;-72
2022/03/27 00:21:42;;;;;;;21.40;16.30;;;;;;;3.03;100.00;97612.47;5032125;28;20846;-73
2022/03/27 00:24:09;;;;;;;22.43;14.50;;;;;;;2.91;100.00;97596.13;5031208;28;20429;-73
2022/03/27 00:26:35;;;;;;;20.17;13.97;;;;;;;2.91;100.00;97604.75;5030712;28;20526;-73
2022/03/27 00:29:02;;;;;;;22.37;13.93;;;;;;;2.82;100.00;97582.75;5030842;28;20467;-72
2022/03/27 00:31:35;;;;;;;19.27;14.00;;;;;;;2.80;100.00;97612.72;5030338;28;20439;-72
2022/03/27 00:34:03;;;;;;;15.57;13.47;;;;;;;2.78;100.00;97588.69;5013635;28;20502;-72
2022/03/27 00:36:29;;;;;;;19.17;13.90;;;;;;;2.80;100.00;97594.44;5032733;28;20459;-72
2022/03/27 00:38:57;;;;;;;16.33;13.30;;;;;;;2.69;100.00;97593.56;5032377;28;20432;-72
2022/03/27 00:41:24;;;;;;;19.30;13.10;;;;;;;2.85;100.00;97589.28;5033968;28;20527;-71
2022/03/27 00:43:51;;;;;;;20.30;13.50;;;;;;;2.80;100.00;97615.34;5019475;28;20468;-72
2022/03/27 00:46:18;;;;;;;18.07;12.00;;;;;;;2.89;100.00;97583.31;5028039;28;20487;-71
2022/03/27 00:48:44;;;;;;;18.80;12.60;;;;;;;2.92;100.00;97605.56;5033926;28;20451;-71
2022/03/27 00:51:11;;;;;;;28.33;11.40;;;;;;;2.91;100.00;97577.84;5035050;28;20554;-72
2022/03/27 00:53:38;;;;;;;18.60;11.27;;;;;;;3.01;100.00;97598.06;5033942;28;20432;-72
2022/03/27 00:56:05;;;;;;;16.93;12.60;;;;;;;2.75;100.00;97582.13;5066858;28;20521;-72
2022/03/27 00:58:31;;;;;;;18.30;12.47;;;;;;;2.75;100.00;97605.63;5033599;28;20442;-72
2022/03/27 01:01:15;;;;;;;19.80;11.77;;;;;;;2.79;100.00;97604.09;5033450;28;20431;-72
2022/03/27 01:03:43;;;;;;;20.23;13.20;;;;;;;2.89;100.00;97588.56;5016992;28;21015;-72
2022/03/27 01:06:44;;;;;;;18.30;11.53;;;;;;;3.02;100.00;97602.25;5033387;28;20495;-72
2022/03/27 01:09:36;;;;;;;14.63;10.80;;;;;;;2.57;100.00;97561.56;5062471;28;20505;-72
2022/03/27 01:12:14;;;;;;;14.53;11.70;;;;;;;2.43;100.00;97602.13;5032835;28;20494;-72
2022/03/27 01:14:41;;;;;;;16.13;12.30;;;;;;;2.59;100.00;97593.44;5032957;28;20514;-72
2022/03/27 01:17:09;;;;;;;22.57;13.47;;;;;;;2.53;100.00;97603.00;5032716;28;20451;-72
2022/03/27 01:19:41;;;;;;;22.93;13.03;;;;;;;2.40;100.00;97600.75;5032755;28;21003;-72
2022/03/27 01:22:09;;;;;;;19.63;13.13;;;;;;;2.62;100.00;97585.91;5034112;28;20423;-72
2022/03/27 01:24:36;;;;;;;17.60;13.30;;;;;;;2.72;100.00;97587.84;5032570;28;20967;-72
2022/03/27 01:27:03;;;;;;;23.67;14.03;;;;;;;2.73;100.00;97563.31;5032698;28;20460;-72
2022/03/27 01:29:30;;;;;;;19.00;13.90;;;;;;;2.61;100.00;97567.88;5032534;28;20523;-72
2022/03/27 01:31:57;;;;;;;16.20;13.10;;;;;;;2.77;100.00;97569.63;5033857;28;20855;-72
2022/03/27 01:34:24;;;;;;;24.33;14.43;;;;;;;2.73;100.00;97568.53;5019317;28;20436;-72
2022/03/27 01:36:51;;;;;;;20.53;14.80;;;;;;;2.63;100.00;97571.81;5019070;28;20546;-72
2022/03/27 01:39:18;;;;;;;27.40;15.10;;;;;;;2.81;100.00;97583.78;5033759;28;20442;-72
2022/03/27 01:41:45;;;;;;;20.07;14.93;;;;;;;2.65;100.00;97584.63;5032426;28;20439;-72
2022/03/27 01:44:14;;;;;;;16.63;14.03;;;;;;;2.28;100.00;97553.94;5033782;28;20454;-72
2022/03/27 01:46:42;;;;;;;16.93;14.67;;;;;;;2.53;100.00;97578.72;5032361;28;20484;-72
2022/03/27 01:49:12;;;;;;;17.03;12.60;;;;;;;2.71;100.00;97577.66;5032018;28;20452;-72
2022/03/27 01:51:40;;;;;;;21.67;17.07;;;;;;;2.67;100.00;97575.53;5032133;28;20443;-72
2022/03/27 01:54:07;;;;;;;26.47;15.70;;;;;;;2.63;100.00;97573.63;5032156;28;20443;-72
2022/03/27 01:56:34;;;;;;;20.10;14.23;;;;;;;2.32;100.00;97577.72;5033564;28;20546;-72
2022/03/27 01:59:00;;;;;;;20.17;14.60;;;;;;;1.91;100.00;97540.66;5031587;28;20516;-73
2022/03/27 02:01:27;;;;;;;16.23;14.03;;;;;;;2.36;100.00;97576.97;5032101;28;20423;-72
2022/03/27 02:03:55;;;;;;;21.50;13.53;;;;;;;2.49;100.00;97573.22;5031812;28;20439;-72
2022/03/27 02:06:23;;;;;;;20.17;13.53;;;;;;;2.62;100.00;97575.47;5031965;28;20463;-72
2022/03/27 02:08:51;;;;;;;19.10;11.20;;;;;;;2.64;100.00;97576.00;5033124;28;20769;-72
2022/03/27 02:11:18;;;;;;;17.10;13.10;;;;;;;2.65;100.00;97579.41;5031727;28;20474;-72
2022/03/27 02:13:45;;;;;;;19.80;11.73;;;;;;;2.59;100.00;97569.94;5031767;28;20518;-72
2022/03/27 02:16:12;;;;;;;12.77;10.50;;;;;;;2.51;100.00;97571.16;5031781;28;20875;-72
2022/03/27 02:18:41;;;;;;;19.37;12.07;;;;;;;2.21;100.00;97547.31;5031762;28;20817;-72
2022/03/27 02:21:08;;;;;;;24.17;13.80;;;;;;;2.35;100.00;97570.19;5031638;28;20436;-72
2022/03/27 02:23:35;;;;;;;28.30;17.27;;;;;;;2.40;100.00;97569.44;5031624;28;20467;-72
2022/03/27 02:26:02;;;;;;;24.17;15.17;;;;;;;2.38;100.00;97568.91;5031601;28;20452;-72
2022/03/27 02:28:29;;;;;;;20.37;13.33;;;;;;;2.21;100.00;97558.53;5032803;28;20427;-72
2022/03/27 02:30:55;;;;;;;23.17;12.47;;;;;;;2.03;100.00;97566.63;5031492;28;20828;-72
2022/03/27 02:33:24;;;;;;;14.57;10.73;;;;;;;1.96;100.00;97566.00;5026641;28;20440;-72
2022/03/27 02:35:51;;;;;;;17.93;11.13;;;;;;;2.09;100.00;97568.28;5028054;28;20455;-72
2022/03/27 02:38:17;;;;;;;19.00;11.70;;;;;;;1.79;100.00;97524.31;5029925;28;20847;-72
2022/03/27 02:40:45;;;;;;;20.67;13.50;;;;;;;2.30;100.00;97561.50;5031424;28;20576;-72
2022/03/27 02:43:13;;;;;;;18.20;13.03;;;;;;;2.01;100.00;97573.91;5031313;28;20452;-72
2022/03/27 02:45:40;;;;;;;22.23;13.30;;;;;;;2.07;100.00;97555.47;5064463;28;20546;-72
2022/03/27 02:48:07;;;;;;;30.80;15.50;;;;;;;1.74;100.00;97563.38;5031266;28;21038;-72
2022/03/27 02:50:37;;;;;;;24.47;15.47;;;;;;;1.95;100.00;97567.81;5032448;28;20463;-72
2022/03/27 02:53:04;;;;;;;23.00;15.40;;;;;;;1.90;100.00;97548.72;5014653;28;20940;-72
2022/03/27 02:55:30;;;;;;;23.73;14.90;;;;;;;1.96;100.00;97568.63;5024662;28;20460;-72
2022/03/27 02:57:57;;;;;;;25.53;15.40;;;;;;;1.57;100.00;97523.47;5031282;28;20447;-72
2022/03/27 03:00:25;;;;;;;20.73;14.07;;;;;;;1.48;100.00;97547.34;5017674;28;20528;-72
2022/03/27 03:02:53;;;;;;;21.53;15.33;;;;;;;1.59;100.00;97574.34;5031049;28;20870;-72
2022/03/27 03:05:21;;;;;;;18.20;13.37;;;;;;;1.37;100.00;97540.41;5047662;28;20463;-72
2022/03/27 03:07:49;;;;;;;15.73;12.30;;;;;;;1.26;100.00;97551.66;5030898;28;20432;-72
2022/03/27 03:10:17;;;;;;;21.30;13.33;;;;;;;1.05;100.00;97539.31;5029611;28;20501;-72
2022/03/27 03:12:44;;;;;;;16.50;12.00;;;;;;;1.48;100.00;97570.78;5032044;28;20966;-72
2022/03/27 03:15:11;;;;;;;21.03;14.47;;;;;;;1.55;100.00;97544.56;5030569;28;20466;-72
2022/03/27 03:17:38;;;;;;;17.80;13.10;;;;;;;1.46;100.00;97501.69;5031976;28;20440;-72
2022/03/27 03:20:05;;;;;;;20.10;13.03;;;;;;;1.90;100.00;97574.81;5030478;28;20438;-72
2022/03/27 03:22:32;;;;;;;21.07;14.57;;;;;;;2.00;100.00;97580.13;5030402;28;20467;-72
2022/03/27 03:24:59;;;;;;;18.57;14.00;;;;;;;2.07;100.00;97571.13;5031698;28;20982;-72
2022/03/27 03:27:25;;;;;;;19.30;12.33;;;;;;;1.73;100.00;97561.75;5030424;28;20479;-72
2022/03/27 03:29:52;;;;;;;24.03;14.40;;;;;;;1.67;100.00;97555.69;5030410;28;20456;-72
2022/03/27 03:32:19;;;;;;;18.60;13.70;;;;;;;1.55;100.00;97546.38;5030302;28;20517;-72
2022/03/27 03:34:46;;;;;;;20.03;13.73;;;;;;;1.54;100.00;97535.16;5016864;28;20824;-72
2022/03/27 03:37:13;;;;;;;18.40;13.07;;;;;;;1.73;100.00;97554.72;5014003;28;20447;-72
2022/03/27 03:39:39;;;;;;;19.27;13.57;;;;;;;1.76;100.00;97558.69;5031497;28;20459;-72
2022/03/27 03:42:06;;;;;;;15.63;12.30;;;;;;;1.85;100.00;97572.09;5030209;28;20440;-72
2022/03/27 03:44:32;;;;;;;20.23;13.93;;;;;;;1.54;100.00;97545.59;5030261;28;20880;-72
2022/03/27 03:46:59;;;;;;;29.30;14.57;;;;;;;1.63;100.00;97564.25;5031470;28;20451;-72
2022/03/27 03:49:26;;;;;;;25.13;15.10;;;;;;;1.34;100.00;97534.88;5030108;28;20450;-72
2022/03/27 03:51:53;;;;;;;24.07;13.57;;;;;;;1.74;100.00;97552.94;5031346;28;20545;-72
2022/03/27 03:54:19;;;;;;;26.37;13.60;;;;;;;1.45;100.00;97555.63;5030197;28;20475;-72
2022/03/27 03:56:46;;;;;;;19.83;14.00;;;;;;;1.65;100.00;97583.81;5029933;28;20525;-72
2022/03/27 03:59:13;;;;;;;24.03;15.63;;;;;;;1.29;100.00;97553.00;5031194;28;20428;-72
2022/03/27 04:01:55;;;;;;;30.37;15.70;;;;;;;1.36;100.00;97551.84;5031260;28;20423;-72
2022/03/27 04:04:22;;;;;;;30.70;15.90;;;;;;;1.36;100.00;97579.72;5031291;28;20771;-72
2022/03/27 04:06:48;;;;;;;23.77;15.77;;;;;;;1.21;100.00;97561.22;5042932;28;20498;-72
2022/03/27 04:09:15;;;;;;;19.60;12.77;;;;;;;1.37;100.00;97576.06;5044786;28;20790;-72
2022/03/27 04:11:43;;;;;;;21.23;12.90;;;;;;;1.20;100.00;97576.03;5036806;28;20562;-72
2022/03/27 04:14:09;;;;;;;17.77;11.73;;;;;;;1.08;100.00;97580.53;5031040;28;20440;-72
2022/03/27 04:16:36;;;;;;;18.07;12.27;;;;;;;0.72;100.00;97547.88;5030118;28;20550;-72
2022/03/27 04:19:03;;;;;;;16.70;11.40;;;;;;;1.06;100.00;97582.56;5030035;28;20435;-72
2022/03/27 04:21:31;;;;;;;22.87;12.27;;;;;;;1.09;100.00;97585.53;5032388;28;20492;-72
2022/03/27 04:23:58;;;;;;;19.60;12.23;;;;;;;1.14;100.00;97582.19;5033991;28;20435;-72
2022/03/27 04:26:30;;;;;;;20.57;12.17;;;;;;;1.17;100.00;97579.91;5032724;28;20458;-72
2022/03/27 04:28:57;;;;;;;22.13;12.67;;;;;;;1.40;100.00;97578.22;5015393;28;20514;-72
2022/03/27 04:31:23;;;;;;;21.00;12.63;;;;;;;1.07;100.00;97556.31;5031450;28;20466;-72
2022/03/27 04:33:50;;;;;;;25.23;13.70;;;;;;;1.16;100.00;97582.75;5025168;28;20516;-72
2022/03/27 04:36:17;;;;;;;23.40;13.53;;;;;;;1.09;100.00;97580.31;5030421;28;20475;-72
2022/03/27 04:38:43;;;;;;;25.33;13.50;;;;;;;1.25;100.00;97606.63;5034966;28;20877;-72
2022/03/27 04:41:10;;;;;;;17.33;13.37;;;;;;;1.07;100.00;97600.59;5034760;28;20520;-72
2022/03/27 04:43:36;;;;;;;15.27;11.50;;;;;;;0.77;100.00;97573.97;5033786;28;20806;-73
2022/03/27 04:46:04;;;;;;;14.60;10.57;;;;;;;0.62;100.00;97563.28;5033435;28;20451;-73
2022/03/27 04:48:31;;;;;;;13.07;10.90;;;;;;;0.67;100.00;97573.78;5033497;28;20435;-73
2022/03/27 04:50:57;;;;;;;15.57;12.23;;;;;;;0.88;100.00;97604.38;5034604;28;20468;-73
2022/03/27 04:53:24;;;;;;;15.53;12.03;;;;;;;0.76;100.00;97575.78;5033275;28;20530;-73
2022/03/27 04:55:51;;;;;;;19.10;13.60;;;;;;;0.88;100.00;97588.75;5033145;28;20463;-73
2022/03/27 04:58:17;;;;;;;43.00;28.00;;;;;;;0.88;100.00;97605.19;5033296;28;20430;-73
2022/03/27 05:00:45;;;;;;;86.10;46.53;;;;;;;0.80;100.00;97602.13;5016651;28;20569;-73
2022/03/27 05:03:12;;;;;;;49.27;31.13;;;;;;;0.78;100.00;97610.19;5033111;28;20951;-73
2022/03/27 05:05:40;;;;;;;62.00;35.43;;;;;;;0.93;100.00;97603.69;5016519;28;20565;-73
2022/03/27 05:08:07;;;;;;;69.33;37.77;;;;;;;0.86;100.00;97598.63;5032929;28;20448;-73
2022/03/27 05:10:35;;;;;;;30.30;20.33;;;;;;;0.86;100.00;97606.44;5032793;28;20517;-72
2022/03/27 05:13:02;;;;;;;31.40;17.70;;;;;;;0.92;100.00;97609.91;5032875;28;20470;-72
2022/03/27 05:15:28;;;;;;;28.67;19.80;;;;;;;0.83;100.00;97591.28;5016307;28;20506;-72
2022/03/27 05:17:58;;;;;;;21.90;15.37;;;;;;;0.31;100.00;97582.72;5032894;28;20968;-72
2022/03/27 05:20:29;;;;;;;23.60;17.97;;;;;;;0.33;100.00;97604.06;5034085;28;20871;-72
2022/03/27 05:22:59;;;;;;;28.57;14.63;;;;;;;0.32;100.00;97605.91;5032774;28;20438;-72
2022/03/27 05:25:26;;;;;;;16.90;12.23;;;;;;;0.52;100.00;97593.28;5032532;28;20458;-72
2022/03/27 05:27:55;;;;;;;21.27;13.90;;;;;;;0.71;100.00;97609.53;5032877;28;20528;-72
2022/03/27 05:30:24;;;;;;;20.63;14.60;;;;;;;0.69;100.00;97587.38;5032492;28;20573;-72
2022/03/27 05:32:52;;;;;;;19.80;13.07;;;;;;;1.02;100.00;97605.69;5031476;28;20441;-72
2022/03/27 05:35:19;;;;;;;19.83;14.03;;;;;;;0.95;100.00;97579.03;5036309;28;20514;-72
2022/03/27 05:37:47;;;;;;;19.73;13.90;;;;;;;1.16;100.00;97614.78;5032530;28;20445;-72
2022/03/27 05:40:17;;;;;;;23.90;13.60;;;;;;;1.11;100.00;97606.91;5016161;28;20527;-72
2022/03/27 05:42:44;;;;;;;19.37;13.73;;;;;;;1.16;100.00;97606.19;5032355;28;20435;-73
2022/03/27 05:45:12;;;;;;;17.97;15.43;;;;;;;1.38;100.00;97621.94;5032585;28;21014;-72
2022/03/27 05:47:41;;;;;;;20.93;13.93;;;;;;;1.30;100.00;97611.91;5033586;28;20529;-72
2022/03/27 05:50:10;;;;;;;17.80;13.20;;;;;;;1.24;100.00;97615.47;5032202;28;20526;-72
2022/03/27 05:52:37;;;;;;;18.33;14.30;;;;;;;1.40;100.00;97612.06;5033624;28;20431;-72
2022/03/27 05:55:04;;;;;;;22.60;13.17;;;;;;;1.30;100.00;97625.72;5033544;28;21059;-72
2022/03/27 05:57:31;;;;;;;18.57;14.33;;;;;;;0.57;100.00;97514.56;5032070;28;20538;-72
2022/03/27 05:59:58;;;;;;;21.10;13.57;;;;;;;1.45;100.00;97638.22;5032274;28;20631;-72
2022/03/27 06:02:25;;;;;;;20.57;14.10;;;;;;;1.34;100.00;97602.63;5032043;28;20460;-72
2022/03/27 06:04:51;;;;;;;15.07;12.90;;;;;;;1.53;100.00;97624.03;5033317;28;20455;-72
2022/03/27 06:07:18;;;;;;;19.93;13.53;;;;;;;1.59;100.00;97623.84;5032102;28;20980;-72
2022/03/27 06:09:45;;;;;;;18.07;13.87;;;;;;;1.56;100.00;97598.25;5031931;28;20540;-72
2022/03/27 06:12:12;;;;;;;18.93;15.37;;;;;;;1.32;100.00;97576.75;5033261;28;20539;-72
2022/03/27 06:14:38;;;;;;;20.37;17.17;;;;;;;1.91;100.00;97633.75;5015503;28;20440;-72
2022/03/27 06:17:05;;;;;;;26.43;19.10;;;;;;;1.92;100.00;97632.72;5031626;28;20523;-72
2022/03/27 06:19:32;;;;;;;23.43;18.60;;;;;;;2.07;100.00;97638.94;5031843;28;20487;-73
2022/03/27 06:21:58;;;;;;;27.70;20.57;;;;;;;2.01;100.00;97645.13;5033114;28;20435;-73
2022/03/27 06:24:26;;;;;;;27.63;20.33;;;;;;;1.87;100.00;97596.94;5031775;28;20475;-73
2022/03/27 06:26:53;;;;;;;23.30;17.70;;;;;;;2.14;100.00;97612.72;5032894;28;20550;-73
2022/03/27 06:29:21;;;;;;;25.67;19.20;;;;;;;1.95;100.00;97621.81;5015301;28;20440;-73
2022/03/27 06:31:52;;;;;;;25.33;18.00;;;;;;;2.17;100.00;97629.69;5031366;28;20464;-73
2022/03/27 06:34:19;;;;;;;34.00;20.17;;;;;;;2.36;100.00;97633.59;5019162;28;20519;-73
2022/03/27 06:36:46;;;;;;;30.73;17.23;;;;;;;2.41;100.00;97612.03;5032117;28;20482;-73
2022/03/27 06:39:13;;;;;;;22.27;15.50;;;;;;;2.77;100.00;97644.56;5031402;28;20467;-73
2022/03/27 06:41:40;;;;;;;19.77;15.47;;;;;;;2.88;100.00;97641.03;5031134;28;20466;-73
2022/03/27 06:44:08;;;;;;;23.30;16.50;;;;;;;3.13;100.00;97643.16;5031256;28;20454;-73
2022/03/27 06:46:35;;;;;;;23.90;15.30;;;;;;;3.24;100.00;97629.16;5031112;28;20448;-73
2022/03/27 06:49:02;;;;;;;23.00;15.10;;;;;;;3.42;100.00;97634.03;5031250;28;20863;-73
2022/03/27 06:51:29;;;;;;;24.87;17.00;;;;;;;3.61;100.00;97637.09;5031105;28;20468;-73
2022/03/27 06:53:55;;;;;;;20.33;15.87;;;;;;;3.80;100.00;97630.44;5031021;28;20443;-73
2022/03/27 06:56:22;;;;;;;24.70;16.70;;;;;;;4.00;100.00;97635.00;5030921;28;20462;-73
2022/03/27 06:58:49;;;;;;;25.23;18.20;;;;;;;4.15;100.00;97637.75;5030805;28;20538;-73
2022/03/27 07:04:01;;;;;;;28.57;18.03;;;;;;;4.73;100.00;97635.19;5032177;28;20939;-73
2022/03/27 07:06:28;;;;;;;28.23;17.13;;;;;;;5.10;100.00;97645.53;5030909;28;20483;-73
2022/03/27 07:08:55;;;;;;;24.80;16.60;;;;;;;5.53;100.00;97631.19;5032044;28;20936;-73
2022/03/27 07:11:21;;;;;;;25.87;18.00;;;;;;;5.92;100.00;97664.84;5030685;28;20551;-73
2022/03/27 07:13:48;;;;;;;23.07;17.77;;;;;;;6.18;100.00;97657.72;5030656;28;20459;-73
2022/03/27 07:16:16;;;;;;;20.63;16.57;;;;;;;6.41;100.00;97657.19;5030573;28;20983;-73
2022/03/27 07:18:49;;;;;;;25.13;16.80;;;;;;;6.42;100.00;97653.50;5030800;28;20451;-73
2022/03/27 07:21:18;;;;;;;22.03;16.97;;;;;;;6.68;100.00;97669.97;5030615;28;20522;-73
2022/03/27 07:23:45;;;;;;;19.93;16.20;;;;;;;6.82;100.00;97638.66;5030549;28;20454;-74
2022/03/27 07:26:11;;;;;;;22.03;15.53;;;;;;;7.21;100.00;97648.44;5014136;28;21216;-74
2022/03/27 07:28:38;;;;;;;22.03;17.23;;;;;;;7.41;100.00;97649.13;5030417;28;20530;-73
2022/03/27 07:31:05;;;;;;;33.80;18.97;;;;;;;7.41;100.00;97633.34;5030296;28;20472;-74
2022/03/27 07:33:31;;;;;;;21.47;17.13;;;;;;;7.88;100.00;97668.00;5024382;28;20433;-74
2022/03/27 07:35:59;;;;;;;23.77;17.47;;;;;;;8.02;100.00;97673.47;5056203;28;20457;-73
2022/03/27 07:38:26;;;;;;;24.03;16.37;;;;;;;8.27;100.00;97654.78;5030225;28;20444;-73
2022/03/27 07:40:59;;;;;;;23.27;17.87;;;;;;;8.42;100.00;97656.53;5063661;28;20450;-74
2022/03/27 07:43:26;;;;;;;21.60;17.47;;;;;;;8.73;100.00;97684.16;5030403;28;20462;-74
2022/03/27 07:45:53;;;;;;;22.00;17.73;;;;;;;8.64;100.00;97654.19;5030421;28;20571;-74
2022/03/27 07:48:20;;;;;;;19.57;17.07;;;;;;;9.01;100.00;97653.50;5014129;28;20436;-73
2022/03/27 07:50:54;;;;;;;22.30;17.20;;;;;;;8.77;100.00;97669.31;5030318;28;20428;-74
2022/03/27 07:53:21;;;;;;;24.50;19.93;;;;;;;9.00;100.00;97685.44;5031653;28;20421;-74
2022/03/27 07:55:48;;;;;;;22.53;18.90;;;;;;;9.29;100.00;97686.13;5031048;28;20827;-74
2022/03/27 07:58:16;;;;;;;25.43;18.60;;;;;;;9.37;100.00;97682.84;5030991;28;20437;-74
2022/03/27 08:00:42;;;;;;;22.57;16.63;;;;;;;9.32;100.00;97669.72;5013682;28;20479;-74
2022/03/27 08:03:09;;;;;;;22.57;18.13;;;;;;;9.44;100.00;97648.97;5031432;28;20428;-73
2022/03/27 08:05:37;;;;;;;24.87;17.13;;;;;;;9.78;100.00;97679.66;5030105;28;20464;-74
2022/03/27 08:08:04;;;;;;;25.77;17.33;;;;;;;9.75;100.00;97680.22;5063425;28;20494;-73
2022/03/27 08:10:31;;;;;;;24.53;16.60;;;;;;;9.81;100.00;97676.41;5016742;28;20445;-74
2022/03/27 08:12:59;;;;;;;24.40;19.50;;;;;;;10.08;100.00;97655.38;5029927;28;20476;-74
2022/03/27 08:15:26;;;;;;;27.43;18.93;;;;;;;10.43;100.00;97655.88;5031237;28;20452;-74
2022/03/27 08:17:54;;;;;;;21.90;16.23;;;;;;;10.85;100.00;97668.06;5029829;28;20874;-74
2022/03/27 08:20:23;;;;;;;27.13;18.27;;;;;;;10.74;100.00;97666.69;5030077;28;20928;-73
2022/03/27 08:22:50;;;;;;;21.73;17.70;;;;;;;10.72;100.00;97657.47;5020083;28;20468;-73
2022/03/27 08:26:55;;;;;;;22.97;18.50;;;;;;;11.12;100.00;97658.53;5028301;28;20862;-73
2022/03/27 08:28:04;;;;;;;22.23;17.97;;;;;;;11.28;100.00;97664.28;5029781;28;20511;-73
2022/03/27 08:30:30;;;;;;;24.10;18.67;;;;;;;11.24;100.00;97669.41;5029767;28;20466;-73
2022/03/27 08:32:57;;;;;;;24.80;18.70;;;;;;;11.08;100.00;97670.75;5028440;28;21077;-73
2022/03/27 08:35:24;;;;;;;18.83;16.10;;;;;;;11.23;100.00;97652.72;5026522;28;20454;-73
2022/03/27 08:37:50;;;;;;;22.60;17.60;;;;;;;11.50;100.00;97669.63;5026195;28;20464;-74
2022/03/27 08:40:18;;;;;;;22.87;16.93;;;;;;;11.61;100.00;97654.28;5029649;28;20461;-74
2022/03/27 08:42:45;;;;;;;25.97;19.47;;;;;;;11.75;100.00;97663.78;5029695;28;20525;-72
2022/03/27 08:45:12;;;;;;;24.17;18.40;;;;;;;11.71;100.00;97662.78;5021257;28;20512;-73
2022/03/27 08:47:39;;;;;;;22.33;18.20;;;;;;;11.84;100.00;97656.69;5013636;28;20476;-73
2022/03/27 08:50:13;;;;;;;23.50;18.87;;;;;;;12.19;100.00;97666.75;5029697;28;20788;-74
2022/03/27 08:52:52;;;;;;;23.47;19.07;;;;;;;11.98;100.00;97653.97;5013332;28;20479;-74
2022/03/27 08:55:23;;;;;;;22.13;18.80;;;;;;;12.24;100.00;97669.25;5010272;28;20519;-74
2022/03/27 08:57:56;;;;;;;26.27;18.00;;;;;;;12.38;100.00;97664.66;5027388;28;20441;-75
2022/03/27 09:00:31;;;;;;;26.30;20.03;;;;;;;12.51;100.00;97649.72;5029668;28;20873;-74
2022/03/27 09:03:00;;;;;;;21.23;18.83;;;;;;;12.49;100.00;97638.66;5029716;28;20913;-74
2022/03/27 09:05:27;;;;;;;22.83;17.57;;;;;;;12.62;100.00;97638.53;5029555;28;20536;-74
2022/03/27 09:07:56;;;;;;;24.77;17.83;;;;;;;12.88;100.00;97656.44;5030526;28;20434;-74
2022/03/27 09:10:25;;;;;;;24.97;16.23;;;;;;;12.65;100.00;97637.94;5033077;28;20449;-74
2022/03/27 09:12:55;;;;;;;22.27;16.70;;;;;;;12.77;100.00;97650.63;5033136;28;21334;-75
2022/03/27 09:15:23;;;;;;;21.23;16.20;;;;;;;12.80;100.00;97654.53;5033409;28;20503;-75
2022/03/27 09:18:09;;;;;;;21.50;17.10;;;;;;;12.92;100.00;97655.50;5033637;28;20544;-74
2022/03/27 09:20:46;;;;;;;19.10;13.30;;;;;;;13.04;100.00;97657.56;5019910;28;20432;-75
2022/03/27 09:23:21;;;;;;;13.73;11.90;;;;;;;13.11;100.00;97649.94;5032839;28;20480;-74
2022/03/27 09:25:53;;;;;;;16.07;12.23;;;;;;;12.99;100.00;97658.50;5032960;28;20460;-74
2022/03/27 09:28:22;;;;;;;16.80;13.10;;;;;;;12.94;100.00;97650.66;5033202;28;20976;-75
2022/03/27 09:30:49;;;;;;;17.07;15.27;;;;;;;13.03;100.00;97624.91;5032947;28;20560;-74
2022/03/27 09:33:48;;;;;;;17.37;14.57;;;;;;;12.98;100.00;97617.13;5009508;28;20472;-73
2022/03/27 09:36:19;;;;;;;17.60;12.60;;;;;;;13.32;100.00;97647.50;5023269;28;20446;-74
2022/03/27 09:39:05;;;;;;;17.77;12.30;;;;;;;13.34;100.00;97637.31;5032922;28;20546;-73
2022/03/27 09:41:46;;;;;;;14.93;11.67;;;;;;;13.41;100.00;97642.97;5032955;28;20441;-74
2022/03/27 09:44:39;;;;;;;13.00;11.63;;;;;;;13.44;100.00;97637.03;5032939;28;20441;-72
2022/03/27 09:47:07;;;;;;;14.37;12.53;;;;;;;13.67;100.00;97644.88;5016574;28;20433;-73
2022/03/27 09:49:34;;;;;;;12.33;10.80;;;;;;;13.88;100.00;97638.56;5033160;28;20469;-73
2022/03/27 09:52:05;;;;;;;16.70;13.13;;;;;;;13.46;100.00;97634.06;5034346;28;20536;-73
2022/03/27 09:54:46;;;;;;;13.80;11.20;;;;;;;13.70;100.00;97638.91;5033779;28;20495;-72
2022/03/27 09:57:31;;;;;;;13.83;11.33;;;;;;;13.72;100.00;97634.06;5020307;28;20489;-74
2022/03/27 10:00:14;;;;;;;12.77;10.97;;;;;;;13.70;100.00;97615.75;5013201;28;20433;-73
2022/03/27 10:02:42;;;;;;;17.80;13.23;;;;;;;14.10;100.00;97634.94;5033784;28;20425;-72
2022/03/27 10:05:14;;;;;;;17.73;10.80;;;;;;;13.95;100.00;97622.16;5016932;28;20535;-73
2022/03/27 10:07:44;;;;;;;13.10;10.50;;;;;;;13.86;100.00;97611.53;5032767;28;20499;-73
2022/03/27 10:10:17;;;;;;;11.10;9.90;;;;;;;13.87;100.00;97617.63;5033101;28;20828;-72
2022/03/27 10:12:46;;;;;;;13.07;10.67;;;;;;;14.14;100.00;97619.13;5033853;28;20468;-73
2022/03/27 10:15:16;;;;;;;11.93;10.70;;;;;;;14.16;98.63;97590.34;5033686;28;20491;-72
2022/03/27 10:18:11;;;;;;;12.40;10.70;;;;;;;14.66;98.79;97603.78;5032571;28;20430;-74
2022/03/27 10:20:39;;;;;;;12.20;10.00;;;;;;;14.82;93.87;97614.66;5033506;28;20518;-73
2022/03/27 10:23:09;;;;;;;12.10;10.40;;;;;;;14.83;93.27;97584.28;5032601;28;20444;-73
2022/03/27 10:25:45;;;;;;;10.87;9.77;;;;;;;15.08;92.99;97617.19;5033908;28;20442;-73
2022/03/27 10:28:13;;;;;;;12.10;10.27;;;;;;;14.83;92.33;97612.81;5048195;28;20434;-73
2022/03/27 10:30:41;;;;;;;13.57;11.33;;;;;;;14.40;92.53;97611.84;5031709;28;20546;-74
2022/03/27 10:33:09;;;;;;;14.30;10.60;;;;;;;14.05;94.10;97595.22;5029118;28;20461;-72
2022/03/27 10:35:59;;;;;;;12.40;9.33;;;;;;;13.95;94.46;97576.16;5023196;28;20449;-72
2022/03/27 10:38:51;;;;;;;13.30;10.40;;;;;;;13.80;95.78;97602.16;5025546;28;20526;-74
2022/03/27 10:41:29;;;;;;;14.70;11.93;;;;;;;13.83;95.46;97600.75;5028072;28;20434;-75
2022/03/27 10:44:02;;;;;;;13.53;10.53;;;;;;;13.95;96.06;97602.75;5031806;28;20529;-72
2022/03/27 10:46:29;;;;;;;11.90;10.10;;;;;;;14.10;95.15;97576.44;5031447;28;20499;-74
2022/03/27 10:49:17;;;;;;;14.23;11.13;;;;;;;14.46;94.05;97586.66;5031436;28;20995;-75
2022/03/27 10:51:46;;;;;;;12.10;9.37;;;;;;;14.74;93.37;97588.88;5031412;28;20489;-74
2022/03/27 10:54:18;;;;;;;10.90;8.87;;;;;;;14.69;91.19;97595.19;5018075;28;20867;-74
2022/03/27 10:56:48;;;;;;;11.60;9.50;;;;;;;14.64;90.68;97586.56;5031458;28;20905;-74
2022/03/27 10:59:20;;;;;;;11.10;9.83;;;;;;;14.46;93.05;97585.88;5014826;28;20442;-72
2022/03/27 11:02:03;;;;;;;13.03;10.33;;;;;;;14.41;91.17;97594.78;5019931;28;20967;-72
2022/03/27 11:04:44;;;;;;;11.63;10.17;;;;;;;14.03;92.71;97576.16;5018895;28;20533;-75
2022/03/27 11:07:17;;;;;;;12.97;11.63;;;;;;;14.07;94.24;97589.59;5031217;28;20479;-75
2022/03/27 11:09:45;;;;;;;12.23;10.90;;;;;;;14.18;94.51;97580.94;5031946;28;20823;-75
2022/03/27 11:12:30;;;;;;;14.33;11.40;;;;;;;14.10;94.12;97589.72;5033012;28;20992;-75
2022/03/27 11:14:59;;;;;;;11.27;10.10;;;;;;;14.01;94.45;97565.03;5032698;28;20484;-75
2022/03/27 11:17:49;;;;;;;12.40;10.13;;;;;;;14.21;94.06;97582.19;5032656;28;20438;-75
2022/03/27 11:20:25;;;;;;;11.37;9.70;;;;;;;14.30;93.35;97582.94;5032675;28;20801;-74
2022/03/27 11:22:52;;;;;;;12.60;10.10;;;;;;;14.40;91.58;97576.47;5031200;28;20465;-75
2022/03/27 11:25:36;;;;;;;10.97;9.87;;;;;;;14.76;89.61;97570.69;5032931;28;20491;-75
2022/03/27 11:28:03;;;;;;;11.00;9.90;;;;;;;15.66;86.69;97586.22;5031304;28;21021;-72
2022/03/27 11:30:31;;;;;;;14.43;10.53;;;;;;;16.18;85.03;97578.44;5030427;28;20851;-75